Costa Victoria — IBLC — position and weather

sailwx.info

Track history (hours):
 
Tides and Currents Weather Stations Pressure Air Temp Water Temp Dewpoint Dewpoint Depression Visibility Wind Speed Wind Dir Waves Ship Positions

Costa Victoria

Last reported at 2018-Oct-05 15:22 UTC. Time now 2018-Oct-20 01:50 UTC.
Position N 32°14' E 031°15'.
Warning: this ship's position is 14 days out of date.

Length 252 m; draft 8 m.

Type: Passenger vessel. MMSI: 247109000.

Date/timePositionNaut miles runAvg speedWind from/ knotsBaromVisibWave heightAir tempDewpointWater temp
2018-Oct-05 15:22N 32°14' E 031°15'716.2
2018-Oct-05 14:57N 32°18' E 031°08'4014.0
2018-Oct-05 12:08N 32°43' E 030°32'37710.2
2018-Oct-03 23:13N 35°44' E 023°53'315.8
2018-Oct-03 23:03N 35°45' E 023°49'115.8
2018-Oct-03 23:00N 35°45' E 023°49'816.0
2018-Oct-03 22:30N 35°46' E 023°39'1415.7
2018-Oct-03 21:37N 35°46' E 023°22'615.6
2018-Oct-03 21:13N 35°47' E 023°14'416.1
2018-Oct-03 20:59N 35°47' E 023°10'815.7
2018-Oct-03 20:29N 35°47' E 022°60'34315.0
2018-Oct-02 21:39N 37°37' E 016°14'1214.8
2018-Oct-02 20:49N 37°41' E 015°60'514.7
2018-Oct-02 20:30N 37°43' E 015°54'1814.6
2018-Oct-02 19:15N 37°56' E 015°38'614.5
2018-Oct-02 18:50N 38°01' E 015°35'614.4
2018-Oct-02 18:26N 38°07' E 015°36'2 5.8
2018-Oct-02 18:03N 38°08' E 015°39'0 0.6
2018-Oct-02 17:59N 38°08' E 015°39'0 0.0
2018-Oct-02 17:13N 38°08' E 015°39'0 0.0
2018-Oct-02 17:01N 38°08' E 015°39'0 0.0
2018-Oct-02 16:49N 38°08' E 015°39'0 0.0
2018-Oct-02 16:07N 38°08' E 015°39'0 0.0
2018-Oct-02 15:55N 38°08' E 015°39'0 0.0
2018-Oct-02 15:07N 38°08' E 015°39'0 0.0
2018-Oct-02 15:01N 38°08' E 015°39'0 0.0
2018-Oct-02 14:55N 38°08' E 015°39'0 0.0
2018-Oct-02 14:19N 38°08' E 015°39'0 0.0
2018-Oct-02 13:55N 38°08' E 015°39'0 0.0
2018-Oct-02 13:13N 38°08' E 015°39'0 0.0
2018-Oct-02 13:01N 38°08' E 015°39'0 0.0
2018-Oct-02 12:31N 38°08' E 015°39'0 0.0
2018-Oct-02 12:13N 38°08' E 015°39'0 0.0
2018-Oct-02 12:01N 38°08' E 015°39'0 0.0
2018-Oct-02 11:55N 38°08' E 015°39'0 0.1
2018-Oct-02 11:31N 38°08' E 015°39'2 3.5
2018-Oct-02 11:03N 38°09' E 015°39'1 5.4
2018-Oct-02 10:56N 38°10' E 015°38'4 9.3
2018-Oct-02 10:31N 38°13' E 015°36'613.4
2018-Oct-02 10:02N 38°19' E 015°41'115.8
2018-Oct-02 09:59N 38°19' E 015°40'918.2
2018-Oct-02 09:30N 38°27' E 015°35'1018.5
2018-Oct-02 08:58N 38°36' E 015°29'919.1
2018-Oct-02 08:29N 38°45' E 015°26'298 9.9
2018-Oct-01 02:23N 42°10' E 010°42'815.7
2018-Oct-01 01:52N 42°11' E 010°31'616.0
2018-Oct-01 01:29N 42°12' E 010°22'716.0
2018-Oct-01 01:03N 42°14' E 010°13'116.1
2018-Oct-01 01:00N 42°14' E 010°12'2614.5
2018-Sep-30 23:11N 42°33' E 009°48'216.4
2018-Sep-30 23:02N 42°36' E 009°47'116.4
2018-Sep-30 22:59N 42°37' E 009°47'816.2
2018-Sep-30 22:28N 42°44' E 009°43'816.3
2018-Sep-30 21:59N 42°52' E 009°39'916.4
2018-Sep-30 21:27N 43°00' E 009°36'615.6
2018-Sep-30 21:03N 43°06' E 009°32'115.8
2018-Sep-30 21:00N 43°06' E 009°32'815.7
2018-Sep-30 20:30N 43°13' E 009°26'715.9
2018-Sep-30 20:03N 43°19' E 009°21'116.0
2018-Sep-30 20:00N 43°20' E 009°21'816.0
2018-Sep-30 19:30N 43°27' E 009°15'715.9
2018-Sep-30 19:03N 43°33' E 009°10'115.8
2018-Sep-30 19:00N 43°34' E 009°09'815.8
2018-Sep-30 18:30N 43°40' E 009°04'715.8
2018-Sep-30 18:03N 43°46' E 008°58'115.5
2018-Sep-30 18:00N 43°47' E 008°58'815.7
2018-Sep-30 17:30N 43°54' E 008°52'716.0
2018-Sep-30 17:03N 43°60' E 008°47'116.0
2018-Sep-30 17:00N 44°01' E 008°47'816.1
2018-Sep-30 16:30N 44°08' E 008°41'716.3
2018-Sep-30 16:03N 44°14' E 008°35'116.4
2018-Sep-30 16:00N 44°15' E 008°35'611.3
2018-Sep-30 15:30N 44°19' E 008°30'1 2.2
2018-Sep-30 15:03N 44°19' E 008°29'0 0.0
2018-Sep-30 15:01N 44°19' E 008°29'0 0.0
2018-Sep-30 14:31N 44°19' E 008°29'0 0.0
2018-Sep-30 14:01N 44°19' E 008°29'0 0.0
2018-Sep-30 13:31N 44°19' E 008°29'0 0.0
2018-Sep-30 13:04N 44°19' E 008°29'0 0.0
2018-Sep-30 13:01N 44°19' E 008°29'0 0.0
2018-Sep-30 12:31N 44°19' E 008°29'0 0.0
2018-Sep-30 12:04N 44°19' E 008°29'0 0.0
2018-Sep-30 12:00N 44°19' E 008°29'0 0.0
2018-Sep-30 11:31N 44°19' E 008°29'0 0.0
2018-Sep-30 11:04N 44°19' E 008°29'0 0.0
2018-Sep-30 11:01N 44°19' E 008°29'0 0.0
2018-Sep-30 10:30N 44°19' E 008°29'0 0.0
2018-Sep-30 10:04N 44°19' E 008°29'0 0.0
2018-Sep-30 10:00N 44°19' E 008°29'0 0.0
2018-Sep-30 09:31N 44°19' E 008°29'0 0.0
2018-Sep-30 09:04N 44°19' E 008°29'0 0.0
2018-Sep-30 09:00N 44°19' E 008°29'0 0.0
2018-Sep-30 08:31N 44°19' E 008°29'0 0.0
2018-Sep-30 08:03N 44°19' E 008°29'0 0.0
2018-Sep-30 08:01N 44°19' E 008°29'0 0.0
2018-Sep-30 07:31N 44°19' E 008°29'0 0.0
2018-Sep-30 07:04N 44°19' E 008°29'0 0.0
2018-Sep-30 07:00N 44°19' E 008°29'0 0.0
2018-Sep-30 06:30N 44°19' E 008°29'0 0.0
2018-Sep-30 06:04N 44°19' E 008°29'0 0.0
2018-Sep-30 06:01N 44°19' E 008°29'0 0.0
2018-Sep-30 05:31N 44°19' E 008°29'1 1.7
2018-Sep-30 05:04N 44°19' E 008°30'0 5.6
2018-Sep-30 05:00N 44°19' E 008°31'510.9
2018-Sep-30 04:31N 44°14' E 008°32'613.9
2018-Sep-30 04:03N 44°08' E 008°29'114.1
2018-Sep-30 04:00N 44°07' E 008°29'714.4
2018-Sep-30 03:30N 44°01' E 008°25'714.7
2018-Sep-30 03:03N 43°55' E 008°20'114.5
2018-Sep-30 03:00N 43°54' E 008°20'714.5
2018-Sep-30 02:30N 43°49' E 008°13'511.4
2018-Sep-30 02:03N 43°46' E 008°08'0 9.8
2018-Sep-30 02:00N 43°45' E 008°07'510.1
2018-Sep-30 01:31N 43°42' E 008°02'510.6
2018-Sep-30 01:04N 43°39' E 007°57'110.8
2018-Sep-30 01:01N 43°38' E 007°56'510.7
2018-Sep-30 00:30N 43°35' E 007°51'510.8
2018-Sep-30 00:04N 43°32' E 007°46'110.9
2018-Sep-30 00:01N 43°31' E 007°45'510.5
2018-Sep-29 23:31N 43°28' E 007°39'4 9.9
2018-Sep-29 23:04N 43°25' E 007°35'0 9.8
2018-Sep-29 23:01N 43°25' E 007°34'5 9.9
2018-Sep-29 22:31N 43°22' E 007°29'510.1
2018-Sep-29 22:03N 43°19' E 007°24'010.3
2018-Sep-29 22:00N 43°18' E 007°24'510.6
2018-Sep-29 21:31N 43°15' E 007°18'511.0
2018-Sep-29 21:04N 43°12' E 007°13'111.3
2018-Sep-29 21:00N 43°11' E 007°13'611.4
2018-Sep-29 20:30N 43°07' E 007°07'511.3
2018-Sep-29 20:03N 43°04' E 007°02'111.2
2018-Sep-29 20:00N 43°03' E 007°01'611.3
2018-Sep-29 19:31N 42°60' E 006°55'611.2
2018-Sep-29 19:01N 42°56' E 006°50'010.8
2018-Sep-29 19:00N 42°56' E 006°50'610.8
2018-Sep-29 18:29N 42°53' E 006°44'711.2
2018-Sep-29 17:53N 42°49' E 006°36'18214.9
2018-Sep-29 05:42N 41°30' E 002°55'314.5
2018-Sep-29 05:30N 41°29' E 002°52'614.4
2018-Sep-29 05:03N 41°25' E 002°45'114.5
2018-Sep-29 05:01N 41°25' E 002°44'814.6
2018-Sep-29 04:28N 41°21' E 002°35'614.7
2018-Sep-29 04:03N 41°17' E 002°28'114.7
2018-Sep-29 04:00N 41°17' E 002°28'714.8
2018-Sep-29 03:31N 41°13' E 002°19'714.7
2018-Sep-29 03:04N 41°12' E 002°11'113.5
2018-Sep-29 03:01N 41°12' E 002°10'612.2
2018-Sep-29 02:31N 41°10' E 002°02'512.0
2018-Sep-29 02:04N 41°08' E 001°55'111.8
2018-Sep-29 02:01N 41°08' E 001°55'611.9
2018-Sep-29 01:30N 41°05' E 001°47'612.6
2018-Sep-29 01:04N 41°05' E 001°40'111.9
2018-Sep-29 01:00N 41°05' E 001°39'611.2
2018-Sep-29 00:28N 41°04' E 001°31'611.4
2018-Sep-28 23:58N 41°03' E 001°24'611.6
2018-Sep-28 23:26N 41°04' E 001°15'2 5.5
2018-Sep-28 23:00N 41°05' E 001°13'0 0.0
2018-Sep-28 14:54N 41°05' E 001°13'0 0.0
2018-Sep-28 13:51N 41°05' E 001°13'0 0.0
2018-Sep-28 12:54N 41°05' E 001°13'0 0.0
2018-Sep-28 12:27N 41°05' E 001°13'0 0.0
2018-Sep-28 11:54N 41°05' E 001°13'0 0.0
2018-Sep-28 11:27N 41°05' E 001°13'0 0.0
2018-Sep-28 11:00N 41°05' E 001°13'108 7.7
2018-Sep-27 20:59N 39°30' E 002°20'511.3
2018-Sep-27 20:30N 39°27' E 002°25'511.3
2018-Sep-27 20:03N 39°25' E 002°32'111.7
2018-Sep-27 20:00N 39°26' E 002°32'611.5
2018-Sep-27 19:30N 39°30' E 002°37'3 6.4
2018-Sep-27 19:03N 39°33' E 002°38'0 2.5
2018-Sep-27 19:00N 39°33' E 002°38'0 0.0
2018-Sep-27 18:28N 39°33' E 002°38'0 0.0
2018-Sep-27 18:01N 39°33' E 002°38'0 0.0
2018-Sep-27 17:58N 39°33' E 002°38'0 0.0
2018-Sep-27 17:28N 39°33' E 002°38'0 0.0
2018-Sep-27 17:01N 39°33' E 002°38'0 0.0
2018-Sep-27 16:58N 39°33' E 002°38'0 0.0
2018-Sep-27 16:28N 39°33' E 002°38'0 0.0
2018-Sep-27 16:01N 39°33' E 002°38'0 0.0
2018-Sep-27 15:58N 39°33' E 002°38'0 0.0
2018-Sep-27 15:28N 39°33' E 002°38'0 0.0
2018-Sep-27 15:01N 39°33' E 002°38'0 0.0
2018-Sep-27 14:58N 39°33' E 002°38'0 0.0
2018-Sep-27 14:28N 39°33' E 002°38'0 0.0
2018-Sep-27 13:58N 39°33' E 002°38'0 0.0
2018-Sep-27 13:28N 39°33' E 002°38'0 0.0
2018-Sep-27 13:01N 39°33' E 002°38'0 0.0
2018-Sep-27 12:58N 39°33' E 002°38'0 0.0
2018-Sep-27 12:19N 39°33' E 002°38'0 0.0
2018-Sep-27 12:01N 39°33' E 002°38'0 0.0
2018-Sep-27 11:58N 39°33' E 002°38'0 0.0
2018-Sep-27 11:28N 39°33' E 002°38'0 0.0
2018-Sep-27 11:01N 39°33' E 002°38'0 0.0
2018-Sep-27 10:58N 39°33' E 002°38'0 0.0
2018-Sep-27 10:28N 39°33' E 002°38'0 0.0
2018-Sep-27 10:01N 39°33' E 002°38'0 0.0
2018-Sep-27 09:58N 39°33' E 002°38'0 0.0
2018-Sep-27 09:28N 39°33' E 002°38'0 0.0
2018-Sep-27 09:01N 39°33' E 002°38'0 0.0
2018-Sep-27 08:58N 39°33' E 002°38'0 0.0
2018-Sep-27 08:25N 39°33' E 002°38'0 0.0
2018-Sep-27 08:01N 39°33' E 002°38'0 0.0
2018-Sep-27 07:58N 39°33' E 002°38'0 0.3
2018-Sep-27 07:30N 39°33' E 002°38'1 3.0
2018-Sep-27 07:03N 39°32' E 002°38'0 6.7
2018-Sep-27 07:00N 39°31' E 002°38'612.4
2018-Sep-27 06:30N 39°27' E 002°34'714.4
2018-Sep-27 06:03N 39°22' E 002°27'114.6
2018-Sep-27 06:00N 39°22' E 002°26'914.8
2018-Sep-27 05:24N 39°17' E 002°17'3115.0
2018-Sep-27 03:18N 38°59' E 001°44'415.0
2018-Sep-27 03:02N 38°57' E 001°39'115.1
2018-Sep-27 03:00N 38°57' E 001°39'714.5
2018-Sep-27 02:30N 38°54' E 001°30'2 5.0
2018-Sep-27 02:02N 38°54' E 001°27'0 0.2
2018-Sep-27 01:59N 38°54' E 001°27'0 0.0
2018-Sep-27 01:29N 38°54' E 001°27'0 0.0
2018-Sep-27 00:56N 38°54' E 001°27'0 0.0
2018-Sep-27 00:29N 38°54' E 001°27'0 0.0
2018-Sep-26 23:56N 38°54' E 001°27'0 0.0
2018-Sep-26 23:26N 38°54' E 001°27'0 0.0
2018-Sep-26 22:59N 38°54' E 001°27'0 0.0
2018-Sep-26 22:26N 38°54' E 001°27'0 0.0
2018-Sep-26 22:02N 38°54' E 001°27'0 0.0
2018-Sep-26 21:56N 38°54' E 001°27'0 0.0
2018-Sep-26 21:26N 38°54' E 001°27'0 0.0
2018-Sep-26 20:59N 38°54' E 001°27'0 0.0
2018-Sep-26 20:29N 38°54' E 001°27'0 0.0
2018-Sep-26 20:02N 38°54' E 001°27'0 0.0
2018-Sep-26 19:59N 38°54' E 001°27'0 0.0
2018-Sep-26 19:29N 38°54' E 001°27'0 0.0
2018-Sep-26 18:56N 38°54' E 001°27'0 0.0
2018-Sep-26 18:29N 38°54' E 001°27'0 0.0
2018-Sep-26 18:02N 38°54' E 001°27'0 0.0
2018-Sep-26 17:56N 38°54' E 001°27'0 0.0
2018-Sep-26 17:29N 38°54' E 001°27'0 0.0
2018-Sep-26 17:02N 38°54' E 001°27'0 0.0
2018-Sep-26 16:59N 38°54' E 001°27'0 0.0
2018-Sep-26 16:29N 38°54' E 001°27'0 0.0
2018-Sep-26 16:02N 38°54' E 001°27'0 0.0
2018-Sep-26 15:59N 38°54' E 001°27'0 0.0
2018-Sep-26 15:29N 38°54' E 001°27'0 0.0
2018-Sep-26 15:02N 38°54' E 001°27'0 0.0
2018-Sep-26 14:59N 38°54' E 001°27'0 0.0
2018-Sep-26 13:56N 38°54' E 001°27'0 0.0
2018-Sep-26 13:20N 38°54' E 001°27'0 0.0
2018-Sep-26 13:02N 38°54' E 001°27'0 0.0
2018-Sep-26 12:59N 38°54' E 001°27'0 0.0
2018-Sep-26 12:26N 38°54' E 001°27'0 0.0
2018-Sep-26 12:02N 38°54' E 001°27'0 0.0
2018-Sep-26 11:56N 38°54' E 001°27'0 0.0
2018-Sep-26 11:17N 38°54' E 001°27'0 0.0
2018-Sep-26 11:02N 38°54' E 001°27'0 0.0
2018-Sep-26 10:59N 38°54' E 001°27'0 0.0
2018-Sep-26 10:29N 38°54' E 001°27'0 0.0
2018-Sep-26 10:02N 38°54' E 001°27'0 0.0
2018-Sep-26 09:59N 38°54' E 001°27'0 0.0
2018-Sep-26 09:23N 38°54' E 001°27'0 0.0
2018-Sep-26 09:02N 38°54' E 001°27'0 0.0
2018-Sep-26 08:56N 38°54' E 001°27'0 0.0
2018-Sep-26 08:26N 38°54' E 001°27'0 0.0
2018-Sep-26 08:02N 38°54' E 001°27'0 0.0
2018-Sep-26 07:59N 38°54' E 001°27'0 0.0
2018-Sep-26 07:29N 38°54' E 001°27'0 0.0
2018-Sep-26 07:02N 38°54' E 001°27'0 0.0
2018-Sep-26 06:50N 38°54' E 001°27'0 1.5
2018-Sep-26 06:30N 38°54' E 001°27'4 7.6
2018-Sep-26 06:02N 38°54' E 001°31'111.8
2018-Sep-26 05:57N 38°54' E 001°32'511.8
2018-Sep-26 05:30N 38°55' E 001°39'4011.2
2018-Sep-26 01:53N 39°01' E 002°31'810.6
2018-Sep-26 01:10N 39°02' E 002°40'110.8
2018-Sep-26 01:02N 39°02' E 002°42'410.7
2018-Sep-26 00:39N 39°03' E 002°47'410.7
2018-Sep-26 00:19N 39°03' E 002°52'311.5
2018-Sep-26 00:03N 39°04' E 002°56'111.9
2018-Sep-26 00:00N 39°04' E 002°56'811.7
2018-Sep-25 23:18N 39°07' E 003°06'411.9
2018-Sep-25 22:56N 39°10' E 003°11'  
Track history (hours):
 
Tides and Currents Weather Stations Pressure Air Temp Water Temp Dewpoint Dewpoint Depression Visibility Wind Speed Wind Dir Waves Ship Positions

Costa Victoria

Last reported at 2018-Oct-05 15:22 UTC. Time now 2018-Oct-20 01:50 UTC.
Position N 32°14' E 031°15'.
Warning: this ship's position is 14 days out of date.

Length 252 m; draft 8 m.

Type: Passenger vessel. MMSI: 247109000.

Date/timePositionNaut miles runAvg speedWind from/ knotsBaromVisibWave heightAir tempDewpointWater temp
2018-Oct-05 15:22N 32°14' E 031°15'716.2
2018-Oct-05 14:57N 32°18' E 031°08'4014.0
2018-Oct-05 12:08N 32°43' E 030°32'37710.2
2018-Oct-03 23:13N 35°44' E 023°53'315.8
2018-Oct-03 23:03N 35°45' E 023°49'115.8
2018-Oct-03 23:00N 35°45' E 023°49'816.0
2018-Oct-03 22:30N 35°46' E 023°39'1415.7
2018-Oct-03 21:37N 35°46' E 023°22'615.6
2018-Oct-03 21:13N 35°47' E 023°14'416.1
2018-Oct-03 20:59N 35°47' E 023°10'815.7
2018-Oct-03 20:29N 35°47' E 022°60'34315.0
2018-Oct-02 21:39N 37°37' E 016°14'1214.8
2018-Oct-02 20:49N 37°41' E 015°60'514.7
2018-Oct-02 20:30N 37°43' E 015°54'1814.6
2018-Oct-02 19:15N 37°56' E 015°38'614.5
2018-Oct-02 18:50N 38°01' E 015°35'614.4
2018-Oct-02 18:26N 38°07' E 015°36'2 5.8
2018-Oct-02 18:03N 38°08' E 015°39'0 0.6
2018-Oct-02 17:59N 38°08' E 015°39'0 0.0
2018-Oct-02 17:13N 38°08' E 015°39'0 0.0
2018-Oct-02 17:01N 38°08' E 015°39'0 0.0
2018-Oct-02 16:49N 38°08' E 015°39'0 0.0
2018-Oct-02 16:07N 38°08' E 015°39'0 0.0
2018-Oct-02 15:55N 38°08' E 015°39'0 0.0
2018-Oct-02 15:07N 38°08' E 015°39'0 0.0
2018-Oct-02 15:01N 38°08' E 015°39'0 0.0
2018-Oct-02 14:55N 38°08' E 015°39'0 0.0
2018-Oct-02 14:19N 38°08' E 015°39'0 0.0
2018-Oct-02 13:55N 38°08' E 015°39'0 0.0
2018-Oct-02 13:13N 38°08' E 015°39'0 0.0
2018-Oct-02 13:01N 38°08' E 015°39'0 0.0
2018-Oct-02 12:31N 38°08' E 015°39'0 0.0
2018-Oct-02 12:13N 38°08' E 015°39'0 0.0
2018-Oct-02 12:01N 38°08' E 015°39'0 0.0
2018-Oct-02 11:55N 38°08' E 015°39'0 0.1
2018-Oct-02 11:31N 38°08' E 015°39'2 3.5
2018-Oct-02 11:03N 38°09' E 015°39'1 5.4
2018-Oct-02 10:56N 38°10' E 015°38'4 9.3
2018-Oct-02 10:31N 38°13' E 015°36'613.4
2018-Oct-02 10:02N 38°19' E 015°41'115.8
2018-Oct-02 09:59N 38°19' E 015°40'918.2
2018-Oct-02 09:30N 38°27' E 015°35'1018.5
2018-Oct-02 08:58N 38°36' E 015°29'919.1
2018-Oct-02 08:29N 38°45' E 015°26'298 9.9
2018-Oct-01 02:23N 42°10' E 010°42'815.7
2018-Oct-01 01:52N 42°11' E 010°31'616.0
2018-Oct-01 01:29N 42°12' E 010°22'716.0
2018-Oct-01 01:03N 42°14' E 010°13'116.1
2018-Oct-01 01:00N 42°14' E 010°12'2614.5
2018-Sep-30 23:11N 42°33' E 009°48'216.4
2018-Sep-30 23:02N 42°36' E 009°47'116.4
2018-Sep-30 22:59N 42°37' E 009°47'816.2
2018-Sep-30 22:28N 42°44' E 009°43'816.3
2018-Sep-30 21:59N 42°52' E 009°39'916.4
2018-Sep-30 21:27N 43°00' E 009°36'615.6
2018-Sep-30 21:03N 43°06' E 009°32'115.8
2018-Sep-30 21:00N 43°06' E 009°32'815.7
2018-Sep-30 20:30N 43°13' E 009°26'715.9
2018-Sep-30 20:03N 43°19' E 009°21'116.0
2018-Sep-30 20:00N 43°20' E 009°21'816.0
2018-Sep-30 19:30N 43°27' E 009°15'715.9
2018-Sep-30 19:03N 43°33' E 009°10'115.8
2018-Sep-30 19:00N 43°34' E 009°09'815.8
2018-Sep-30 18:30N 43°40' E 009°04'715.8
2018-Sep-30 18:03N 43°46' E 008°58'115.5
2018-Sep-30 18:00N 43°47' E 008°58'815.7
2018-Sep-30 17:30N 43°54' E 008°52'716.0
2018-Sep-30 17:03N 43°60' E 008°47'116.0
2018-Sep-30 17:00N 44°01' E 008°47'816.1
2018-Sep-30 16:30N 44°08' E 008°41'716.3
2018-Sep-30 16:03N 44°14' E 008°35'116.4
2018-Sep-30 16:00N 44°15' E 008°35'611.3
2018-Sep-30 15:30N 44°19' E 008°30'1 2.2
2018-Sep-30 15:03N 44°19' E 008°29'0 0.0
2018-Sep-30 15:01N 44°19' E 008°29'0 0.0
2018-Sep-30 14:31N 44°19' E 008°29'0 0.0
2018-Sep-30 14:01N 44°19' E 008°29'0 0.0
2018-Sep-30 13:31N 44°19' E 008°29'0 0.0
2018-Sep-30 13:04N 44°19' E 008°29'0 0.0
2018-Sep-30 13:01N 44°19' E 008°29'0 0.0
2018-Sep-30 12:31N 44°19' E 008°29'0 0.0
2018-Sep-30 12:04N 44°19' E 008°29'0 0.0
2018-Sep-30 12:00N 44°19' E 008°29'0 0.0
2018-Sep-30 11:31N 44°19' E 008°29'0 0.0
2018-Sep-30 11:04N 44°19' E 008°29'0 0.0
2018-Sep-30 11:01N 44°19' E 008°29'0 0.0
2018-Sep-30 10:30N 44°19' E 008°29'0 0.0
2018-Sep-30 10:04N 44°19' E 008°29'0 0.0
2018-Sep-30 10:00N 44°19' E 008°29'0 0.0
2018-Sep-30 09:31N 44°19' E 008°29'0 0.0
2018-Sep-30 09:04N 44°19' E 008°29'0 0.0
2018-Sep-30 09:00N 44°19' E 008°29'0 0.0
2018-Sep-30 08:31N 44°19' E 008°29'0 0.0
2018-Sep-30 08:03N 44°19' E 008°29'0 0.0
2018-Sep-30 08:01N 44°19' E 008°29'0 0.0
2018-Sep-30 07:31N 44°19' E 008°29'0 0.0
2018-Sep-30 07:04N 44°19' E 008°29'0 0.0
2018-Sep-30 07:00N 44°19' E 008°29'0 0.0
2018-Sep-30 06:30N 44°19' E 008°29'0 0.0
2018-Sep-30 06:04N 44°19' E 008°29'0 0.0
2018-Sep-30 06:01N 44°19' E 008°29'0 0.0
2018-Sep-30 05:31N 44°19' E 008°29'1 1.7
2018-Sep-30 05:04N 44°19' E 008°30'0 5.6
2018-Sep-30 05:00N 44°19' E 008°31'510.9
2018-Sep-30 04:31N 44°14' E 008°32'613.9
2018-Sep-30 04:03N 44°08' E 008°29'114.1
2018-Sep-30 04:00N 44°07' E 008°29'714.4
2018-Sep-30 03:30N 44°01' E 008°25'714.7
2018-Sep-30 03:03N 43°55' E 008°20'114.5
2018-Sep-30 03:00N 43°54' E 008°20'714.5
2018-Sep-30 02:30N 43°49' E 008°13'511.4
2018-Sep-30 02:03N 43°46' E 008°08'0 9.8
2018-Sep-30 02:00N 43°45' E 008°07'510.1
2018-Sep-30 01:31N 43°42' E 008°02'510.6
2018-Sep-30 01:04N 43°39' E 007°57'110.8
2018-Sep-30 01:01N 43°38' E 007°56'510.7
2018-Sep-30 00:30N 43°35' E 007°51'510.8
2018-Sep-30 00:04N 43°32' E 007°46'110.9
2018-Sep-30 00:01N 43°31' E 007°45'510.5
2018-Sep-29 23:31N 43°28' E 007°39'4 9.9
2018-Sep-29 23:04N 43°25' E 007°35'0 9.8
2018-Sep-29 23:01N 43°25' E 007°34'5 9.9
2018-Sep-29 22:31N 43°22' E 007°29'510.1
2018-Sep-29 22:03N 43°19' E 007°24'010.3
2018-Sep-29 22:00N 43°18' E 007°24'510.6
2018-Sep-29 21:31N 43°15' E 007°18'511.0
2018-Sep-29 21:04N 43°12' E 007°13'111.3
2018-Sep-29 21:00N 43°11' E 007°13'611.4
2018-Sep-29 20:30N 43°07' E 007°07'511.3
2018-Sep-29 20:03N 43°04' E 007°02'111.2
2018-Sep-29 20:00N 43°03' E 007°01'611.3
2018-Sep-29 19:31N 42°60' E 006°55'611.2
2018-Sep-29 19:01N 42°56' E 006°50'010.8
2018-Sep-29 19:00N 42°56' E 006°50'610.8
2018-Sep-29 18:29N 42°53' E 006°44'711.2
2018-Sep-29 17:53N 42°49' E 006°36'18214.9
2018-Sep-29 05:42N 41°30' E 002°55'314.5
2018-Sep-29 05:30N 41°29' E 002°52'614.4
2018-Sep-29 05:03N 41°25' E 002°45'114.5
2018-Sep-29 05:01N 41°25' E 002°44'814.6
2018-Sep-29 04:28N 41°21' E 002°35'614.7
2018-Sep-29 04:03N 41°17' E 002°28'114.7
2018-Sep-29 04:00N 41°17' E 002°28'714.8
2018-Sep-29 03:31N 41°13' E 002°19'714.7
2018-Sep-29 03:04N 41°12' E 002°11'113.5
2018-Sep-29 03:01N 41°12' E 002°10'612.2
2018-Sep-29 02:31N 41°10' E 002°02'512.0
2018-Sep-29 02:04N 41°08' E 001°55'111.8
2018-Sep-29 02:01N 41°08' E 001°55'611.9
2018-Sep-29 01:30N 41°05' E 001°47'612.6
2018-Sep-29 01:04N 41°05' E 001°40'111.9
2018-Sep-29 01:00N 41°05' E 001°39'611.2
2018-Sep-29 00:28N 41°04' E 001°31'611.4
2018-Sep-28 23:58N 41°03' E 001°24'611.6
2018-Sep-28 23:26N 41°04' E 001°15'2 5.5
2018-Sep-28 23:00N 41°05' E 001°13'0 0.0
2018-Sep-28 14:54N 41°05' E 001°13'0 0.0
2018-Sep-28 13:51N 41°05' E 001°13'0 0.0
2018-Sep-28 12:54N 41°05' E 001°13'0 0.0
2018-Sep-28 12:27N 41°05' E 001°13'0 0.0
2018-Sep-28 11:54N 41°05' E 001°13'0 0.0
2018-Sep-28 11:27N 41°05' E 001°13'0 0.0
2018-Sep-28 11:00N 41°05' E 001°13'108 7.7
2018-Sep-27 20:59N 39°30' E 002°20'511.3
2018-Sep-27 20:30N 39°27' E 002°25'511.3
2018-Sep-27 20:03N 39°25' E 002°32'111.7
2018-Sep-27 20:00N 39°26' E 002°32'611.5
2018-Sep-27 19:30N 39°30' E 002°37'3 6.4
2018-Sep-27 19:03N 39°33' E 002°38'0 2.5
2018-Sep-27 19:00N 39°33' E 002°38'0 0.0
2018-Sep-27 18:28N 39°33' E 002°38'0 0.0
2018-Sep-27 18:01N 39°33' E 002°38'0 0.0
2018-Sep-27 17:58N 39°33' E 002°38'0 0.0
2018-Sep-27 17:28N 39°33' E 002°38'0 0.0
2018-Sep-27 17:01N 39°33' E 002°38'0 0.0
2018-Sep-27 16:58N 39°33' E 002°38'0 0.0
2018-Sep-27 16:28N 39°33' E 002°38'0 0.0
2018-Sep-27 16:01N 39°33' E 002°38'0 0.0
2018-Sep-27 15:58N 39°33' E 002°38'0 0.0
2018-Sep-27 15:28N 39°33' E 002°38'0 0.0
2018-Sep-27 15:01N 39°33' E 002°38'0 0.0
2018-Sep-27 14:58N 39°33' E 002°38'0 0.0
2018-Sep-27 14:28N 39°33' E 002°38'0 0.0
2018-Sep-27 13:58N 39°33' E 002°38'0 0.0
2018-Sep-27 13:28N 39°33' E 002°38'0 0.0
2018-Sep-27 13:01N 39°33' E 002°38'0 0.0
2018-Sep-27 12:58N 39°33' E 002°38'0 0.0
2018-Sep-27 12:19N 39°33' E 002°38'0 0.0
2018-Sep-27 12:01N 39°33' E 002°38'0 0.0
2018-Sep-27 11:58N 39°33' E 002°38'0 0.0
2018-Sep-27 11:28N 39°33' E 002°38'0 0.0
2018-Sep-27 11:01N 39°33' E 002°38'0 0.0
2018-Sep-27 10:58N 39°33' E 002°38'0 0.0
2018-Sep-27 10:28N 39°33' E 002°38'0 0.0
2018-Sep-27 10:01N 39°33' E 002°38'0 0.0
2018-Sep-27 09:58N 39°33' E 002°38'0 0.0
2018-Sep-27 09:28N 39°33' E 002°38'0 0.0
2018-Sep-27 09:01N 39°33' E 002°38'0 0.0
2018-Sep-27 08:58N 39°33' E 002°38'0 0.0
2018-Sep-27 08:25N 39°33' E 002°38'0 0.0
2018-Sep-27 08:01N 39°33' E 002°38'0 0.0
2018-Sep-27 07:58N 39°33' E 002°38'0 0.3
2018-Sep-27 07:30N 39°33' E 002°38'1 3.0
2018-Sep-27 07:03N 39°32' E 002°38'0 6.7
2018-Sep-27 07:00N 39°31' E 002°38'612.4
2018-Sep-27 06:30N 39°27' E 002°34'714.4
2018-Sep-27 06:03N 39°22' E 002°27'114.6
2018-Sep-27 06:00N 39°22' E 002°26'914.8
2018-Sep-27 05:24N 39°17' E 002°17'3115.0
2018-Sep-27 03:18N 38°59' E 001°44'415.0
2018-Sep-27 03:02N 38°57' E 001°39'115.1
2018-Sep-27 03:00N 38°57' E 001°39'714.5
2018-Sep-27 02:30N 38°54' E 001°30'2 5.0
2018-Sep-27 02:02N 38°54' E 001°27'0 0.2
2018-Sep-27 01:59N 38°54' E 001°27'0 0.0
2018-Sep-27 01:29N 38°54' E 001°27'0 0.0
2018-Sep-27 00:56N 38°54' E 001°27'0 0.0
2018-Sep-27 00:29N 38°54' E 001°27'0 0.0
2018-Sep-26 23:56N 38°54' E 001°27'0 0.0
2018-Sep-26 23:26N 38°54' E 001°27'0 0.0
2018-Sep-26 22:59N 38°54' E 001°27'0 0.0
2018-Sep-26 22:26N 38°54' E 001°27'0 0.0
2018-Sep-26 22:02N 38°54' E 001°27'0 0.0
2018-Sep-26 21:56N 38°54' E 001°27'0 0.0
2018-Sep-26 21:26N 38°54' E 001°27'0 0.0
2018-Sep-26 20:59N 38°54' E 001°27'0 0.0
2018-Sep-26 20:29N 38°54' E 001°27'0 0.0
2018-Sep-26 20:02N 38°54' E 001°27'0 0.0
2018-Sep-26 19:59N 38°54' E 001°27'0 0.0
2018-Sep-26 19:29N 38°54' E 001°27'0 0.0
2018-Sep-26 18:56N 38°54' E 001°27'0 0.0
2018-Sep-26 18:29N 38°54' E 001°27'0 0.0
2018-Sep-26 18:02N 38°54' E 001°27'0 0.0
2018-Sep-26 17:56N 38°54' E 001°27'0 0.0
2018-Sep-26 17:29N 38°54' E 001°27'0 0.0
2018-Sep-26 17:02N 38°54' E 001°27'0 0.0
2018-Sep-26 16:59N 38°54' E 001°27'0 0.0
2018-Sep-26 16:29N 38°54' E 001°27'0 0.0
2018-Sep-26 16:02N 38°54' E 001°27'0 0.0
2018-Sep-26 15:59N 38°54' E 001°27'0 0.0
2018-Sep-26 15:29N 38°54' E 001°27'0 0.0
2018-Sep-26 15:02N 38°54' E 001°27'0 0.0
2018-Sep-26 14:59N 38°54' E 001°27'0 0.0
2018-Sep-26 13:56N 38°54' E 001°27'0 0.0
2018-Sep-26 13:20N 38°54' E 001°27'0 0.0
2018-Sep-26 13:02N 38°54' E 001°27'0 0.0
2018-Sep-26 12:59N 38°54' E 001°27'0 0.0
2018-Sep-26 12:26N 38°54' E 001°27'0 0.0
2018-Sep-26 12:02N 38°54' E 001°27'0 0.0
2018-Sep-26 11:56N 38°54' E 001°27'0 0.0
2018-Sep-26 11:17N 38°54' E 001°27'0 0.0
2018-Sep-26 11:02N 38°54' E 001°27'0 0.0
2018-Sep-26 10:59N 38°54' E 001°27'0 0.0
2018-Sep-26 10:29N 38°54' E 001°27'0 0.0
2018-Sep-26 10:02N 38°54' E 001°27'0 0.0
2018-Sep-26 09:59N 38°54' E 001°27'0 0.0
2018-Sep-26 09:23N 38°54' E 001°27'0 0.0
2018-Sep-26 09:02N 38°54' E 001°27'0 0.0
2018-Sep-26 08:56N 38°54' E 001°27'0 0.0
2018-Sep-26 08:26N 38°54' E 001°27'0 0.0
2018-Sep-26 08:02N 38°54' E 001°27'0 0.0
2018-Sep-26 07:59N 38°54' E 001°27'0 0.0
2018-Sep-26 07:29N 38°54' E 001°27'0 0.0
2018-Sep-26 07:02N 38°54' E 001°27'0 0.0
2018-Sep-26 06:50N 38°54' E 001°27'0 1.5
2018-Sep-26 06:30N 38°54' E 001°27'4 7.6
2018-Sep-26 06:02N 38°54' E 001°31'111.8
2018-Sep-26 05:57N 38°54' E 001°32'511.8
2018-Sep-26 05:30N 38°55' E 001°39'4011.2
2018-Sep-26 01:53N 39°01' E 002°31'810.6
2018-Sep-26 01:10N 39°02' E 002°40'110.8
2018-Sep-26 01:02N 39°02' E 002°42'410.7
2018-Sep-26 00:39N 39°03' E 002°47'410.7
2018-Sep-26 00:19N 39°03' E 002°52'311.5
2018-Sep-26 00:03N 39°04' E 002°56'111.9
2018-Sep-26 00:00N 39°04' E 002°56'811.7
2018-Sep-25 23:18N 39°07' E 003°06'411.9
2018-Sep-25 22:56N 39°10' E 003°11'  

Dump ship's entire track history